ケープタウン の空港の天気 - METARとTAF

ケープタウン国際空港 ( FACT / CPT ) - 南アフリカ ケープタウン
飛行場実況気象(Metar)
観測時間04/27 06:00 SAST (04/27 04:00 UTC)
風向・風速北 4m/s
視程10km以上
天気現象
少しの雲 雲底高度 910m
気温13℃
湿度88%
気圧1018hPa
METARFACT 270400Z 01008KT 9999 FEW030 13/11 Q1018 NOSIG
過去の天気等 Google飛行場航空写真 Wunderground天気予報

過去48時間のMETAR

飛行場予報(TAF)
発表時間: 4/27 04:55 SAST (4/27 02:55 UTC)
予報対象時間: 27日2時 SAST ~ 28日8時 SAST
風向・風速北 5m/s
視程10km以上
少しの雲 雲底高度 1,220m
27日17時 SAST から
風向・風速北西 8m/s
視程10km以上
全天の4割程度の雲 雲底高度 460m
全天の8割程度の雲 雲底高度 1,070m
27日20時 SAST ~ 28日5時 SAST に 確率 30% で一時的に
視程5,000m
天気現象弱い雨
28日5時 SAST から
風向・風速南 6m/s
視程10km以上
全天の8割程度の雲 雲底高度 910m
TAF AMD FACT 270255Z 2700/2806 36010KT 9999 FEW040
FM271500 31015KT 9999 SCT015 BKN035
PROB30 TEMPO 2718/2803 5000 -RA
FM280300 18012KT 9999 BKN030 TX20/2712Z TN13/2705Z